Time;durP1;ratioP1;P1;durP2;ratioP2;P2;SDS_P1;SDS_P2;PMS_P1;PMS_P2;Temp;Humidity;BMP_temperature;BMP_pressure;BME280_temperature;BME280_humidity;BME280_pressure;Samples;Min_cycle;Max_cycle;Signal;HPM_P1;HPM_P2
2023/04/29 00:01:07;;;;;;;3.03;1.20;;;17.20;53.80;;;;;;5029422;28;20262;-75
2023/04/29 00:03:33;;;;;;;3.23;1.40;;;17.10;53.40;;;;;;5023471;28;20222;-74
2023/04/29 00:05:59;;;;;;;3.10;1.27;;;17.10;53.10;;;;;;5027783;28;20480;-75
2023/04/29 00:08:25;;;;;;;3.10;1.23;;;17.10;52.90;;;;;;5030506;28;20218;-74
2023/04/29 00:10:51;;;;;;;3.07;1.20;;;17.10;52.80;;;;;;5030519;28;20427;-75
2023/04/29 00:13:17;;;;;;;3.30;1.30;;;17.00;52.90;;;;;;5061411;22;20236;-68
2023/04/29 00:15:42;;;;;;;3.30;1.40;;;17.10;53.20;;;;;;5026078;28;20214;-70
2023/04/29 00:18:09;;;;;;;3.60;1.70;;;17.00;53.00;;;;;;5032689;28;20399;-70
2023/04/29 00:20:36;;;;;;;3.30;1.40;;;17.10;54.40;;;;;;5031283;28;20165;-70
2023/04/29 00:23:02;;;;;;;3.10;1.20;;;17.20;53.90;;;;;;5031016;28;20426;-71
2023/04/29 00:25:28;;;;;;;3.17;1.27;;;17.20;53.40;;;;;;5031750;28;20486;-70
2023/04/29 00:27:53;;;;;;;3.30;1.30;;;17.20;53.10;;;;;;5031662;28;20209;-69
2023/04/29 00:30:19;;;;;;;3.50;1.40;;;17.30;52.60;;;;;;5031409;28;20173;-70
2023/04/29 00:32:45;;;;;;;3.17;1.30;;;17.10;53.40;;;;;;5026186;28;20208;-70
2023/04/29 00:35:11;;;;;;;3.10;1.30;;;17.10;53.60;;;;;;5030173;28;20199;-70
2023/04/29 00:37:36;;;;;;;3.00;1.20;;;17.30;53.30;;;;;;5024751;28;20437;-70
2023/04/29 00:40:03;;;;;;;3.30;1.47;;;17.10;53.50;;;;;;5031554;28;20172;-70
2023/04/29 00:42:32;;;;;;;3.00;1.10;;;16.90;53.70;;;;;;5028191;28;20184;-69
2023/04/29 00:44:57;;;;;;;4.03;1.40;;;17.00;54.50;;;;;;5035381;28;20434;-70
2023/04/29 00:47:23;;;;;;;3.40;1.60;;;17.00;53.50;;;;;;5034335;28;20414;-70
2023/04/29 00:49:49;;;;;;;3.13;1.27;;;16.90;53.70;;;;;;5034961;28;20543;-70
2023/04/29 00:52:16;;;;;;;3.40;1.50;;;17.10;54.90;;;;;;5034116;28;20565;-69
2023/04/29 00:54:43;;;;;;;3.10;1.30;;;17.20;53.30;;;;;;5026458;28;20247;-70
2023/04/29 00:57:09;;;;;;;3.10;1.20;;;17.20;53.40;;;;;;5035546;28;20917;-70
2023/04/29 00:59:36;;;;;;;3.50;1.50;;;17.10;53.20;;;;;;5032729;28;20427;-69
2023/04/29 01:02:03;;;;;;;3.53;1.50;;;16.90;53.70;;;;;;5034869;28;20194;-70
2023/04/29 01:04:31;;;;;;;6.37;2.30;;;16.90;53.90;;;;;;5031690;28;20466;-69
2023/04/29 01:07:17;;;;;;;3.00;1.20;;;16.80;53.40;;;;;;5051892;28;20415;-69
2023/04/29 01:09:43;;;;;;;3.07;1.17;;;16.90;53.50;;;;;;5031754;28;20457;-70
2023/04/29 01:12:21;;;;;;;2.97;1.10;;;16.80;53.60;;;;;;5034775;28;20548;-69
2023/04/29 01:14:58;;;;;;;3.20;1.40;;;16.70;53.40;;;;;;5032264;28;20306;-70
2023/04/29 01:17:28;;;;;;;3.10;1.30;;;16.80;53.50;;;;;;5032411;28;20435;-69
2023/04/29 01:19:56;;;;;;;3.10;1.20;;;16.80;52.90;;;;;;5030130;28;20434;-70
2023/04/29 01:22:22;;;;;;;3.10;1.33;;;16.70;53.40;;;;;;5048696;28;20430;-70
2023/04/29 01:24:48;;;;;;;3.20;1.30;;;16.80;53.60;;;;;;5028341;28;20536;-70
2023/04/29 01:27:28;;;;;;;3.07;1.20;;;16.80;53.60;;;;;;5032600;28;20442;-70
2023/04/29 01:30:11;;;;;;;3.27;1.27;;;16.80;52.60;;;;;;5026431;28;20405;-70
2023/04/29 01:33:00;;;;;;;8.13;1.70;;;16.70;52.60;;;;;;5029116;28;20467;-70
2023/04/29 01:35:43;;;;;;;3.27;1.40;;;16.50;53.40;;;;;;5026357;28;20418;-70
2023/04/29 01:38:43;;;;;;;3.30;1.50;;;16.60;53.40;;;;;;5034732;28;20402;-70
2023/04/29 01:41:33;;;;;;;3.10;1.30;;;16.70;52.80;;;;;;5024384;28;20470;-70
2023/04/29 01:44:03;;;;;;;3.10;1.10;;;16.60;53.00;;;;;;5027049;28;20446;-70
2023/04/29 01:46:29;;;;;;;3.10;1.30;;;16.50;53.70;;;;;;5034649;28;20912;-70
2023/04/29 01:48:55;;;;;;;3.23;1.40;;;16.60;53.00;;;;;;5034844;28;20433;-70
2023/04/29 01:51:21;;;;;;;2.97;1.13;;;16.50;53.30;;;;;;5031207;28;21059;-67
2023/04/29 01:53:47;;;;;;;2.80;1.10;;;16.40;53.50;;;;;;5032769;28;20212;-68
2023/04/29 01:56:12;;;;;;;3.00;1.30;;;16.40;53.20;;;;;;5033092;28;20182;-68
2023/04/29 01:58:38;;;;;;;3.00;1.20;;;16.30;53.40;;;;;;5038667;28;20409;-67
2023/04/29 02:01:03;;;;;;;2.90;1.20;;;16.40;53.10;;;;;;5029847;28;20554;-68
2023/04/29 02:03:29;;;;;;;3.47;1.50;;;16.30;53.40;;;;;;5031379;28;20211;-68
2023/04/29 02:05:55;;;;;;;2.90;1.10;;;16.30;53.40;;;;;;5033779;28;20187;-68
2023/04/29 02:08:21;;;;;;;3.00;1.30;;;16.40;53.50;;;;;;5027498;28;20183;-68
2023/04/29 02:10:56;;;;;;;3.10;1.43;;;16.40;52.60;;;;;;5031047;28;20442;-68
2023/04/29 02:13:22;;;;;;;2.80;1.10;;;16.40;53.50;;;;;;5031558;28;20206;-68
2023/04/29 02:15:48;;;;;;;2.80;1.20;;;16.30;53.20;;;;;;5047397;28;20472;-68
2023/04/29 02:18:14;;;;;;;3.00;1.27;;;16.30;53.70;;;;;;5038511;28;20205;-68
2023/04/29 02:20:40;;;;;;;2.90;1.27;;;16.30;52.70;;;;;;5031766;28;20432;-68
2023/04/29 02:23:05;;;;;;;2.70;1.10;;;16.30;53.30;;;;;;5033292;28;20263;-68
2023/04/29 02:25:31;;;;;;;2.90;1.30;;;16.40;53.00;;;;;;5035636;28;20441;-68
2023/04/29 02:27:56;;;;;;;2.77;1.13;;;16.40;52.40;;;;;;5033623;28;20576;-68
2023/04/29 02:30:22;;;;;;;2.80;1.40;;;16.30;53.10;;;;;;5031877;28;20189;-68
2023/04/29 02:32:48;;;;;;;2.70;1.10;;;16.40;53.70;;;;;;5037744;28;20187;-66
2023/04/29 02:35:13;;;;;;;2.70;1.20;;;16.40;53.60;;;;;;5043105;28;20198;-68
2023/04/29 02:37:39;;;;;;;2.70;1.10;;;16.60;52.60;;;;;;5033008;28;20648;-67
2023/04/29 02:40:06;;;;;;;2.73;1.27;;;16.50;53.10;;;;;;5029405;28;20218;-68
2023/04/29 02:42:31;;;;;;;14.83;2.33;;;16.50;52.90;;;;;;5031617;28;20250;-68
2023/04/29 02:44:57;;;;;;;2.40;1.10;;;16.60;52.20;;;;;;5032776;28;20471;-68
2023/04/29 02:47:22;;;;;;;2.30;1.10;;;16.50;52.60;;;;;;5031820;28;20190;-68
2023/04/29 02:49:48;;;;;;;7.20;1.80;;;16.40;53.00;;;;;;5029341;28;20205;-68
2023/04/29 02:52:15;;;;;;;3.27;1.70;;;16.40;53.80;;;;;;5032666;28;20293;-70
2023/04/29 02:54:41;;;;;;;2.00;1.10;;;16.50;52.50;;;;;;5032096;28;20448;-70
2023/04/29 02:57:07;;;;;;;2.00;1.33;;;16.60;53.30;;;;;;5032849;28;20883;-69
2023/04/29 02:59:33;;;;;;;1.80;1.10;;;16.50;52.20;;;;;;5032145;28;20180;-69
2023/04/29 03:02:00;;;;;;;1.80;1.13;;;16.10;53.20;;;;;;5029933;28;20444;-69
2023/04/29 03:04:27;;;;;;;2.00;1.40;;;16.40;54.20;;;;;;5031242;28;20682;-70
2023/04/29 03:06:55;;;;;;;1.80;1.20;;;16.40;53.10;;;;;;5032478;28;20417;-69
2023/04/29 03:09:21;;;;;;;1.80;1.20;;;16.20;53.60;;;;;;5032323;28;20831;-69
2023/04/29 03:11:47;;;;;;;1.83;1.20;;;16.30;54.30;;;;;;5029616;28;20487;-69
2023/04/29 03:14:12;;;;;;;1.77;1.20;;;16.20;53.90;;;;;;5025780;28;20461;-70
2023/04/29 03:16:38;;;;;;;1.77;1.10;;;16.20;53.60;;;;;;5032379;28;20183;-69
2023/04/29 03:19:04;;;;;;;1.80;1.20;;;16.10;54.30;;;;;;5032451;28;20288;-68
2023/04/29 03:21:29;;;;;;;2.73;1.70;;;16.00;53.90;;;;;;5027900;28;20681;-69
2023/04/29 03:23:56;;;;;;;1.90;1.30;;;16.00;54.10;;;;;;5031488;28;20210;-70
2023/04/29 03:26:23;;;;;;;1.83;1.23;;;16.20;53.50;;;;;;5032278;28;20606;-70
2023/04/29 03:28:48;;;;;;;1.80;1.20;;;16.40;52.50;;;;;;5032886;28;20413;-70
2023/04/29 03:31:15;;;;;;;1.70;1.13;;;16.20;53.20;;;;;;5030253;28;20957;-68
2023/04/29 03:33:41;;;;;;;1.80;1.17;;;16.10;53.30;;;;;;5030654;28;20208;-70
2023/04/29 03:36:07;;;;;;;2.00;1.40;;;16.10;54.00;;;;;;5032218;28;20408;-70
2023/04/29 03:38:33;;;;;;;2.27;1.40;;;16.10;53.50;;;;;;5022442;28;20552;-69
2023/04/29 03:40:59;;;;;;;2.10;1.30;;;16.20;53.60;;;;;;5029041;28;20437;-69
2023/04/29 03:43:25;;;;;;;1.80;1.20;;;16.10;53.40;;;;;;5028396;28;20868;-69
2023/04/29 03:45:51;;;;;;;2.97;1.70;;;16.30;52.70;;;;;;5030980;28;20439;-69
2023/04/29 03:48:16;;;;;;;1.77;1.20;;;16.20;52.50;;;;;;5029812;28;20273;-69
2023/04/29 03:50:42;;;;;;;2.00;1.40;;;16.30;52.90;;;;;;5027953;28;20205;-70
2023/04/29 03:53:08;;;;;;;1.80;1.10;;;16.10;53.40;;;;;;5031447;28;21031;-69
2023/04/29 03:55:34;;;;;;;1.90;1.30;;;16.10;54.20;;;;;;5030277;28;20522;-69
2023/04/29 03:57:59;;;;;;;1.70;1.20;;;16.00;54.20;;;;;;5030786;28;20209;-69
2023/04/29 04:00:25;;;;;;;1.70;1.10;;;15.80;54.00;;;;;;5038993;28;20185;-68
2023/04/29 04:02:51;;;;;;;1.70;1.13;;;15.80;54.00;;;;;;5035481;28;20191;-69
2023/04/29 04:05:19;;;;;;;1.70;1.10;;;15.60;55.20;;;;;;5031646;28;20244;-69
2023/04/29 04:07:45;;;;;;;1.83;1.30;;;15.70;54.90;;;;;;5029063;28;20442;-68
2023/04/29 04:10:11;;;;;;;1.80;1.20;;;15.60;55.30;;;;;;5031383;28;20447;-70
2023/04/29 04:12:36;;;;;;;1.70;1.20;;;15.40;56.50;;;;;;5024361;28;20620;-69
2023/04/29 04:15:03;;;;;;;1.90;1.40;;;15.60;56.20;;;;;;5030535;28;20252;-69
2023/04/29 04:17:29;;;;;;;1.77;1.27;;;15.40;55.90;;;;;;5028922;28;20182;-72
2023/04/29 04:19:54;;;;;;;1.77;1.20;;;15.50;56.60;;;;;;5033357;28;20418;-69
2023/04/29 04:22:20;;;;;;;1.93;1.30;;;15.70;55.80;;;;;;5031124;28;20431;-69
2023/04/29 04:24:46;;;;;;;1.70;1.20;;;15.50;55.10;;;;;;5030599;28;20452;-69
2023/04/29 04:27:12;;;;;;;2.47;1.47;;;15.60;55.10;;;;;;5031633;28;20225;-68
2023/04/29 04:29:38;;;;;;;1.70;1.10;;;15.70;55.30;;;;;;5027306;28;20655;-68
2023/04/29 04:32:04;;;;;;;2.20;1.63;;;15.70;54.70;;;;;;5031180;28;20423;-69
2023/04/29 04:34:30;;;;;;;1.70;1.10;;;15.80;54.80;;;;;;5030290;28;20433;-69
2023/04/29 04:36:55;;;;;;;2.40;1.50;;;15.80;54.70;;;;;;5031168;28;21019;-69
2023/04/29 04:39:21;;;;;;;1.93;1.40;;;15.60;55.10;;;;;;5021158;28;20238;-70
2023/04/29 04:41:46;;;;;;;1.80;1.27;;;15.50;55.50;;;;;;5031123;28;20599;-73
2023/04/29 04:44:13;;;;;;;1.80;1.30;;;15.60;54.60;;;;;;5028814;28;20216;-72
2023/04/29 04:46:38;;;;;;;2.13;1.57;;;15.70;54.30;;;;;;5045037;28;20190;-72
2023/04/29 04:49:04;;;;;;;1.80;1.30;;;15.80;54.00;;;;;;5026287;28;20441;-74
2023/04/29 04:51:30;;;;;;;1.70;1.10;;;15.90;54.10;;;;;;5026392;28;20192;-73
2023/04/29 04:53:56;;;;;;;1.80;1.10;;;15.90;54.10;;;;;;5024383;28;20309;-73
2023/04/29 04:56:21;;;;;;;1.70;1.10;;;15.90;54.10;;;;;;5030864;28;20178;-73
2023/04/29 04:58:47;;;;;;;1.80;1.30;;;15.70;55.00;;;;;;5027502;28;20213;-75
2023/04/29 05:01:12;;;;;;;1.70;1.20;;;15.60;55.40;;;;;;5022804;28;20186;-68
2023/04/29 05:03:38;;;;;;;1.80;1.30;;;15.70;54.60;;;;;;5028044;28;20194;-68
2023/04/29 05:06:04;;;;;;;2.37;1.47;;;15.60;55.20;;;;;;5030859;28;20259;-69
2023/04/29 05:08:30;;;;;;;2.07;1.23;;;15.60;55.40;;;;;;5031140;28;20454;-69
2023/04/29 05:10:57;;;;;;;2.30;1.60;;;15.80;54.60;;;;;;5030085;28;20266;-68
2023/04/29 05:13:24;;;;;;;2.00;1.47;;;15.80;54.20;;;;;;5027880;28;20219;-69
2023/04/29 05:15:50;;;;;;;1.83;1.33;;;15.80;54.70;;;;;;5045825;28;20987;-68
2023/04/29 05:18:15;;;;;;;1.70;1.10;;;15.80;54.90;;;;;;5030374;28;20413;-68
2023/04/29 05:20:41;;;;;;;1.80;1.30;;;15.90;54.90;;;;;;5031128;28;20190;-68
2023/04/29 05:23:07;;;;;;;1.70;1.20;;;15.90;55.20;;;;;;5028690;28;20208;-68
2023/04/29 05:25:33;;;;;;;1.80;1.30;;;15.90;55.20;;;;;;5030510;28;20181;-68
2023/04/29 05:27:58;;;;;;;1.80;1.23;;;16.00;54.20;;;;;;5043952;28;20435;-68
2023/04/29 05:30:24;;;;;;;2.57;1.67;;;16.10;54.60;;;;;;5031946;28;20197;-68
2023/04/29 05:32:50;;;;;;;2.23;1.33;;;16.00;54.80;;;;;;5030354;28;20214;-68
2023/04/29 05:35:16;;;;;;;3.90;1.53;;;16.20;55.00;;;;;;5032311;28;20198;-69
2023/04/29 05:37:41;;;;;;;1.70;1.10;;;16.30;54.60;;;;;;5024554;28;20435;-68
2023/04/29 05:40:08;;;;;;;1.90;1.30;;;16.30;54.50;;;;;;5034093;28;20658;-70
2023/04/29 05:42:34;;;;;;;2.50;1.60;;;16.30;54.40;;;;;;5024515;28;20187;-70
2023/04/29 05:44:59;;;;;;;1.90;1.30;;;16.40;55.00;;;;;;5031648;28;20461;-69
2023/04/29 05:47:25;;;;;;;1.90;1.30;;;16.70;54.80;;;;;;5033550;28;20568;-69
2023/04/29 05:49:51;;;;;;;3.20;2.23;;;16.70;54.80;;;;;;5033762;28;20176;-69
2023/04/29 05:52:16;;;;;;;3.03;2.03;;;16.70;54.80;;;;;;5026310;28;20462;-70
2023/04/29 05:54:42;;;;;;;2.40;1.60;;;17.00;54.90;;;;;;5025927;28;20210;-69
2023/04/29 05:57:07;;;;;;;2.43;1.80;;;17.20;53.50;;;;;;5045401;28;20211;-69
2023/04/29 05:59:33;;;;;;;2.50;1.60;;;17.30;53.60;;;;;;5031656;28;20184;-69
2023/04/29 06:01:59;;;;;;;1.70;1.10;;;17.30;54.10;;;;;;5030456;28;20263;-69
2023/04/29 06:04:25;;;;;;;2.43;1.60;;;17.40;54.10;;;;;;5024950;28;20511;-69
2023/04/29 06:06:52;;;;;;;2.43;1.73;;;17.50;54.50;;;;;;5027993;28;20435;-69
2023/04/29 06:09:21;;;;;;;1.80;1.10;;;17.80;53.80;;;;;;5026782;28;20408;-69
2023/04/29 06:11:47;;;;;;;2.30;1.43;;;17.90;53.80;;;;;;5024446;28;20428;-69
2023/04/29 06:14:13;;;;;;;1.93;1.20;;;17.80;52.80;;;;;;5019255;28;20464;-71
2023/04/29 06:19:09;;;;;;;2.17;1.40;;;17.90;54.10;;;;;;5044962;28;20216;-70
2023/04/29 06:21:35;;;;;;;1.93;1.20;;;18.00;52.60;;;;;;5047506;28;20626;-70
2023/04/29 06:24:01;;;;;;;2.40;1.57;;;18.10;50.80;;;;;;5050342;28;20582;-70
2023/04/29 06:26:26;;;;;;;2.00;1.30;;;17.80;48.50;;;;;;5051266;28;20175;-69
2023/04/29 06:28:53;;;;;;;1.90;1.20;;;16.60;54.70;;;;;;5051140;28;20172;-69
2023/04/29 06:31:18;;;;;;;2.57;1.40;;;16.70;56.50;;;;;;5050866;28;20258;-69
2023/04/29 06:33:45;;;;;;;1.80;1.23;;;17.30;53.30;;;;;;5050532;28;20548;-70
2023/04/29 06:36:11;;;;;;;1.80;1.23;;;17.80;52.90;;;;;;5052781;28;20172;-71
2023/04/29 06:38:36;;;;;;;1.90;1.40;;;17.90;53.30;;;;;;5052821;28;20603;-69
2023/04/29 06:41:03;;;;;;;1.77;1.20;;;17.20;51.90;;;;;;5052535;28;20204;-70
2023/04/29 06:43:31;;;;;;;1.80;1.30;;;16.80;50.90;;;;;;5052176;28;20220;-69
2023/04/29 06:45:57;;;;;;;2.10;1.50;;;16.80;51.50;;;;;;5053051;28;20913;-72
2023/04/29 06:48:23;;;;;;;2.60;1.70;;;16.70;52.40;;;;;;5052943;28;20438;-69
2023/04/29 06:50:56;;;;;;;1.83;1.20;;;16.40;53.20;;;;;;5053273;28;20179;-69
2023/04/29 06:53:23;;;;;;;1.80;1.20;;;16.80;52.60;;;;;;5051929;28;20199;-70
2023/04/29 06:55:49;;;;;;;1.90;1.30;;;17.60;50.00;;;;;;5053312;28;20414;-69
2023/04/29 06:58:16;;;;;;;1.80;1.20;;;17.40;47.20;;;;;;5051676;28;20529;-69
2023/04/29 07:00:48;;;;;;;2.27;1.47;;;17.90;46.20;;;;;;5052596;28;20914;-69
2023/04/29 07:03:14;;;;;;;2.03;1.20;;;18.50;45.10;;;;;;5050604;28;20411;-70
2023/04/29 07:05:44;;;;;;;1.90;1.17;;;18.40;43.10;;;;;;5052315;28;20820;-69
2023/04/29 07:08:11;;;;;;;2.10;1.40;;;17.30;45.40;;;;;;5045329;28;20438;-70
2023/04/29 07:10:37;;;;;;;2.30;1.70;;;16.80;48.80;;;;;;5042026;28;20417;-69
2023/04/29 07:13:03;;;;;;;2.00;1.30;;;16.80;49.50;;;;;;5039398;28;20547;-69
2023/04/29 07:15:33;;;;;;;1.97;1.20;;;17.40;49.00;;;;;;5032325;28;20482;-69
2023/04/29 07:17:59;;;;;;;2.10;1.40;;;17.50;47.00;;;;;;5031001;28;20464;-70
2023/04/29 07:20:26;;;;;;;2.00;1.20;;;17.50;46.40;;;;;;5043167;28;20420;-69
2023/04/29 07:22:51;;;;;;;2.93;1.33;;;17.60;46.80;;;;;;5051386;28;20408;-69
2023/04/29 07:25:17;;;;;;;2.10;1.30;;;17.90;45.20;;;;;;5051983;28;20420;-70
2023/04/29 07:27:43;;;;;;;2.20;1.40;;;18.50;43.60;;;;;;5052609;28;20213;-70
2023/04/29 07:30:09;;;;;;;2.10;1.30;;;19.10;42.00;;;;;;5052166;28;20174;-69
2023/04/29 07:32:34;;;;;;;2.50;1.40;;;19.10;40.20;;;;;;5051183;28;20203;-72
2023/04/29 07:35:00;;;;;;;2.00;1.10;;;18.00;41.40;;;;;;5051551;28;20413;-69
2023/04/29 07:37:26;;;;;;;8.63;1.97;;;17.50;43.30;;;;;;5051383;28;20269;-70
2023/04/29 07:39:51;;;;;;;2.40;1.50;;;16.90;45.50;;;;;;5051899;28;20168;-69
2023/04/29 07:42:17;;;;;;;2.20;1.20;;;16.90;46.60;;;;;;5051341;28;20181;-69
2023/04/29 07:44:46;;;;;;;2.83;1.50;;;17.20;45.40;;;;;;5051301;28;20542;-69
2023/04/29 07:47:12;;;;;;;2.30;1.27;;;16.90;46.60;;;;;;5050491;28;20569;-69
2023/04/29 07:49:38;;;;;;;3.17;1.53;;;16.50;47.40;;;;;;5051637;28;20500;-69
2023/04/29 07:52:04;;;;;;;2.20;1.20;;;16.70;46.20;;;;;;5050702;28;20204;-69
2023/04/29 07:54:30;;;;;;;2.30;1.30;;;17.40;42.00;;;;;;5050719;28;20179;-69
2023/04/29 07:56:57;;;;;;;2.63;1.40;;;17.60;41.30;;;;;;5051370;28;20428;-69
2023/04/29 07:59:23;;;;;;;2.20;1.30;;;17.70;43.70;;;;;;5051417;28;20182;-72
2023/04/29 08:01:48;;;;;;;2.20;1.20;;;18.60;41.10;;;;;;5051271;28;20764;-69
2023/04/29 08:04:14;;;;;;;2.30;1.20;;;18.30;41.50;;;;;;5050745;28;20182;-69
2023/04/29 08:06:40;;;;;;;2.30;1.20;;;17.90;41.60;;;;;;5051329;28;20202;-69
2023/04/29 08:09:06;;;;;;;2.20;1.30;;;17.60;43.60;;;;;;5051919;28;20173;-69
2023/04/29 08:11:32;;;;;;;2.30;1.40;;;17.50;44.40;;;;;;5051202;28;20919;-69
2023/04/29 08:13:59;;;;;;;2.20;1.20;;;17.50;43.20;;;;;;5050631;28;20547;-70
2023/04/29 08:16:25;;;;;;;2.30;1.40;;;17.70;41.60;;;;;;5050999;28;20181;-68
2023/04/29 08:18:51;;;;;;;2.20;1.20;;;17.40;43.10;;;;;;5051286;28;20455;-69
2023/04/29 08:21:18;;;;;;;2.73;1.70;;;17.50;43.00;;;;;;5050992;28;20480;-69
2023/04/29 08:23:44;;;;;;;2.30;1.30;;;17.80;41.90;;;;;;5048116;28;20436;-72
2023/04/29 08:26:11;;;;;;;2.20;1.20;;;17.90;39.70;;;;;;5050816;28;20459;-69
2023/04/29 08:28:37;;;;;;;2.20;1.20;;;17.30;41.90;;;;;;5050967;28;20439;-69
2023/04/29 08:31:06;;;;;;;2.20;1.20;;;17.40;41.50;;;;;;5050950;28;20459;-69
2023/04/29 08:33:35;;;;;;;2.33;1.23;;;18.20;42.30;;;;;;5050637;28;20970;-69
2023/04/29 08:36:02;;;;;;;2.30;1.20;;;18.90;39.10;;;;;;5051004;28;20441;-69
2023/04/29 08:38:28;;;;;;;2.43;1.30;;;18.80;37.40;;;;;;5050779;28;20430;-71
2023/04/29 08:40:55;;;;;;;3.53;1.97;;;19.00;37.00;;;;;;5050652;28;20471;-71
2023/04/29 08:43:21;;;;;;;2.30;1.10;;;19.40;35.30;;;;;;5050405;28;20456;-71
2023/04/29 08:45:48;;;;;;;2.50;1.30;;;19.80;35.10;;;;;;5050992;28;20417;-69
2023/04/29 08:48:16;;;;;;;2.60;1.40;;;19.40;35.80;;;;;;5050808;28;20443;-71
2023/04/29 08:50:42;;;;;;;2.63;1.47;;;18.20;34.70;;;;;;5049571;28;20425;-68
2023/04/29 08:53:09;;;;;;;2.57;1.30;;;17.80;36.20;;;;;;5049740;28;20514;-68
2023/04/29 08:55:36;;;;;;;2.53;1.20;;;18.00;35.90;;;;;;5050885;28;20416;-69
2023/04/29 08:58:02;;;;;;;2.50;1.30;;;18.00;35.90;;;;;;5050705;28;20533;-69
2023/04/29 09:00:31;;;;;;;2.60;1.30;;;17.90;38.70;;;;;;5050750;28;20449;-70
2023/04/29 09:02:59;;;;;;;2.57;1.20;;;18.50;37.60;;;;;;5050065;28;20498;-69
2023/04/29 09:05:25;;;;;;;2.80;1.30;;;18.50;36.80;;;;;;5053280;28;20419;-69
2023/04/29 09:07:51;;;;;;;2.80;1.40;;;18.60;35.00;;;;;;5053539;28;20450;-71
2023/04/29 09:10:17;;;;;;;2.70;1.30;;;18.50;37.10;;;;;;5052007;28;20427;-69
2023/04/29 09:12:44;;;;;;;2.80;1.40;;;18.50;36.20;;;;;;5054025;28;20847;-70
2023/04/29 09:15:10;;;;;;;3.20;1.47;;;18.50;36.70;;;;;;5054632;28;20460;-69
2023/04/29 09:17:44;;;;;;;2.83;1.30;;;18.60;35.80;;;;;;5054382;28;20461;-69
2023/04/29 09:20:22;;;;;;;2.63;1.27;;;18.70;35.30;;;;;;5054459;28;20178;-69
2023/04/29 09:22:56;;;;;;;2.70;1.30;;;19.50;32.80;;;;;;5052252;28;20418;-69
2023/04/29 09:25:22;;;;;;;2.80;1.30;;;20.10;32.20;;;;;;5054501;28;20414;-70
2023/04/29 09:27:48;;;;;;;4.70;1.70;;;20.50;30.50;;;;;;5054443;28;20951;-69
2023/04/29 09:30:15;;;;;;;2.80;1.30;;;20.20;31.30;;;;;;5054329;28;20797;-69
2023/04/29 09:32:42;;;;;;;2.77;1.30;;;20.40;31.10;;;;;;5053445;28;20201;-69
2023/04/29 09:35:25;;;;;;;2.80;1.20;;;19.70;30.70;;;;;;5054243;28;20412;-69
2023/04/29 09:37:54;;;;;;;2.80;1.30;;;19.20;32.40;;;;;;5054128;28;20457;-69
2023/04/29 09:40:30;;;;;;;2.80;1.30;;;18.70;32.00;;;;;;5054204;28;20421;-69
2023/04/29 09:42:56;;;;;;;2.90;1.20;;;19.00;31.20;;;;;;5053259;28;20488;-70
2023/04/29 09:45:36;;;;;;;2.70;1.20;;;19.00;32.20;;;;;;5054142;28;20947;-69
2023/04/29 09:48:06;;;;;;;2.77;1.20;;;18.40;34.50;;;;;;5052523;28;20968;-71
2023/04/29 09:50:32;;;;;;;2.87;1.33;;;18.20;34.20;;;;;;5052556;28;20639;-69
2023/04/29 09:52:59;;;;;;;2.70;1.10;;;18.90;33.40;;;;;;5053087;28;20489;-72
2023/04/29 09:55:28;;;;;;;2.83;1.30;;;19.60;32.60;;;;;;5053726;28;20411;-69
2023/04/29 09:57:54;;;;;;;2.90;1.30;;;19.50;32.80;;;;;;5053695;28;20436;-69
2023/04/29 10:00:20;;;;;;;2.90;1.40;;;19.20;33.10;;;;;;5053785;28;20797;-71
2023/04/29 10:02:47;;;;;;;2.80;1.30;;;19.50;31.50;;;;;;5053243;28;20439;-72
2023/04/29 10:05:14;;;;;;;2.93;1.37;;;19.20;32.60;;;;;;5053746;28;20445;-71
2023/04/29 10:07:40;;;;;;;3.00;1.40;;;18.90;32.20;;;;;;5053585;28;20928;-69
2023/04/29 10:10:08;;;;;;;3.10;1.47;;;19.30;32.60;;;;;;5053267;28;20411;-69
2023/04/29 10:12:38;;;;;;;3.80;1.70;;;19.60;31.60;;;;;;5052902;28;20826;-70
2023/04/29 10:15:14;;;;;;;3.90;1.60;;;19.50;30.20;;;;;;5051700;28;20935;-69
2023/04/29 10:17:48;;;;;;;3.10;1.57;;;19.40;31.00;;;;;;5053083;28;20820;-69
2023/04/29 10:20:15;;;;;;;3.53;1.60;;;19.50;31.70;;;;;;5052137;28;20422;-69
2023/04/29 10:22:46;;;;;;;3.00;1.30;;;19.80;31.10;;;;;;5051427;28;21006;-69
2023/04/29 10:25:15;;;;;;;2.87;1.13;;;19.80;31.60;;;;;;5053396;28;20783;-69
2023/04/29 10:27:44;;;;;;;3.00;1.30;;;19.70;29.80;;;;;;5053133;28;20582;-69
2023/04/29 10:30:15;;;;;;;2.90;1.20;;;20.50;29.10;;;;;;5053372;28;20930;-69
2023/04/29 10:32:42;;;;;;;3.03;1.30;;;20.00;28.20;;;;;;5052093;28;20464;-69
2023/04/29 10:35:13;;;;;;;2.97;1.20;;;19.70;29.50;;;;;;5052968;28;20406;-69
2023/04/29 10:37:44;;;;;;;2.90;1.20;;;19.30;30.20;;;;;;5053098;28;20798;-72
2023/04/29 10:40:17;;;;;;;3.33;1.53;;;19.30;31.30;;;;;;5053092;28;21193;-69
2023/04/29 10:42:48;;;;;;;3.07;1.40;;;19.90;29.30;;;;;;5050715;28;20433;-69
2023/04/29 10:45:30;;;;;;;3.13;1.40;;;21.00;27.50;;;;;;5052836;28;20419;-69
2023/04/29 10:48:01;;;;;;;2.90;1.20;;;19.80;27.90;;;;;;5052606;28;20428;-70
2023/04/29 10:50:46;;;;;;;2.90;1.10;;;19.90;28.90;;;;;;5051525;28;20797;-72
2023/04/29 10:53:13;;;;;;;3.03;1.30;;;19.90;31.70;;;;;;5052195;28;20922;-69
2023/04/29 10:55:40;;;;;;;2.90;1.17;;;21.40;29.90;;;;;;5052298;28;20413;-69
2023/04/29 10:58:40;;;;;;;2.90;1.20;;;21.70;30.10;;;;;;5052786;28;20422;-70
2023/04/29 11:01:07;;;;;;;3.00;1.30;;;22.60;27.50;;;;;;5052584;28;20415;-70
2023/04/29 11:03:57;;;;;;;3.53;1.53;;;22.80;27.20;;;;;;5051718;28;20899;-70
2023/04/29 11:06:41;;;;;;;3.00;1.40;;;22.90;26.00;;;;;;5051245;28;20475;-70
2023/04/29 11:09:20;;;;;;;2.90;1.30;;;22.60;27.90;;;;;;5052560;28;20461;-70
2023/04/29 11:11:52;;;;;;;2.90;1.30;;;22.20;25.70;;;;;;5052573;28;20862;-71
2023/04/29 11:14:22;;;;;;;2.97;1.30;;;21.90;26.90;;;;;;5051865;28;20505;-71
2023/04/29 11:17:01;;;;;;;2.80;1.20;;;21.70;27.20;;;;;;5051890;28;20423;-71
2023/04/29 11:19:35;;;;;;;2.80;1.20;;;23.00;28.10;;;;;;5045113;28;20418;-71
2023/04/29 11:22:17;;;;;;;4.10;1.60;;;24.40;26.30;;;;;;5032500;28;20441;-71
2023/04/29 11:25:00;;;;;;;3.10;1.30;;;24.50;23.60;;;;;;5031735;28;20395;-71
2023/04/29 11:27:33;;;;;;;3.07;1.37;;;24.20;24.10;;;;;;5032091;28;20766;-71
2023/04/29 11:30:00;;;;;;;2.83;1.30;;;24.10;25.20;;;;;;5038467;28;20930;-71
2023/04/29 11:32:30;;;;;;;2.83;1.23;;;21.80;27.30;;;;;;5037901;28;20492;-71
2023/04/29 11:35:10;;;;;;;3.13;1.40;;;20.70;28.90;;;;;;5048397;28;20422;-71
2023/04/29 11:37:36;;;;;;;3.40;1.33;;;20.90;30.40;;;;;;5051320;28;20495;-71
2023/04/29 11:40:02;;;;;;;3.07;1.30;;;21.30;28.10;;;;;;5051830;28;20406;-71
2023/04/29 11:42:27;;;;;;;3.00;1.20;;;21.80;27.30;;;;;;5051808;28;20410;-71
2023/04/29 11:44:55;;;;;;;2.90;1.30;;;22.40;27.60;;;;;;5050026;28;20176;-71
2023/04/29 11:47:28;;;;;;;3.10;1.50;;;23.20;26.20;;;;;;5051713;28;20587;-71
2023/04/29 11:50:06;;;;;;;2.90;1.30;;;22.80;27.50;;;;;;5051903;28;20402;-71
2023/04/29 11:52:33;;;;;;;3.00;1.30;;;22.60;26.00;;;;;;5050873;28;20465;-71
2023/04/29 11:54:59;;;;;;;2.80;1.10;;;23.00;26.20;;;;;;5050663;28;20892;-71
2023/04/29 11:57:25;;;;;;;3.00;1.40;;;23.10;26.60;;;;;;5048864;28;20437;-71
2023/04/29 11:59:52;;;;;;;3.30;1.47;;;22.90;24.90;;;;;;5037215;28;20936;-71
2023/04/29 12:02:21;;;;;;;2.90;1.20;;;23.60;27.40;;;;;;5051540;28;20591;-71
2023/04/29 12:04:47;;;;;;;3.57;1.30;;;25.40;25.80;;;;;;5049632;28;20544;-71
2023/04/29 12:07:16;;;;;;;2.90;1.17;;;23.90;25.20;;;;;;5050212;28;21011;-71
2023/04/29 12:09:43;;;;;;;3.10;1.40;;;25.00;24.50;;;;;;5051299;28;20241;-72
2023/04/29 12:12:10;;;;;;;3.40;1.20;;;26.70;22.80;;;;;;5050353;28;20782;-71
2023/04/29 12:14:36;;;;;;;3.70;1.20;;;26.50;19.50;;;;;;5050860;28;20479;-71
2023/04/29 12:17:02;;;;;;;3.70;1.20;;;25.90;21.30;;;;;;5051123;28;20425;-71
2023/04/29 12:19:28;;;;;;;3.50;1.43;;;23.20;23.80;;;;;;5051537;28;20485;-71
2023/04/29 12:21:58;;;;;;;3.73;1.60;;;21.50;27.00;;;;;;5051404;28;20894;-71
2023/04/29 12:24:23;;;;;;;3.30;1.40;;;21.40;27.00;;;;;;5050560;28;20171;-71
2023/04/29 12:26:49;;;;;;;3.30;1.30;;;20.80;28.30;;;;;;5051302;28;21112;-71
2023/04/29 12:29:15;;;;;;;3.80;1.50;;;21.80;29.00;;;;;;5051281;28;20179;-71
2023/04/29 12:31:42;;;;;;;3.40;1.50;;;22.10;26.50;;;;;;5050725;28;20501;-72
2023/04/29 12:34:08;;;;;;;3.43;1.50;;;22.60;28.10;;;;;;5049128;28;20596;-73
2023/04/29 12:36:33;;;;;;;3.13;1.30;;;23.10;26.30;;;;;;5050792;28;20754;-74
2023/04/29 12:39:00;;;;;;;3.47;1.57;;;23.50;25.90;;;;;;5053887;28;20191;-72
2023/04/29 12:41:39;;;;;;;3.20;1.30;;;23.70;25.70;;;;;;5057680;28;20166;-71
2023/04/29 12:44:05;;;;;;;3.10;1.20;;;23.80;25.00;;;;;;5057214;28;20394;-72
2023/04/29 12:46:38;;;;;;;3.30;1.30;;;23.60;25.40;;;;;;5057287;28;20943;-72
2023/04/29 12:49:05;;;;;;;3.10;1.20;;;23.40;25.80;;;;;;5056294;28;20947;-72
2023/04/29 12:51:32;;;;;;;3.33;1.33;;;23.50;26.10;;;;;;5056225;28;20984;-72
2023/04/29 12:53:59;;;;;;;3.50;1.50;;;23.10;25.70;;;;;;5056888;28;20461;-72